< Typhoon 198510 1985 Season Typhoon 198512 >
Typhoon 198511 (NELSON)
General InformationTrack Information on Google MapsDetailed Wind InformationList of All Images || Disaster Info.ResourceGoogle EarthGE AnimationAtom FeedGeoJSON
Detalied Best Track (Time Zone = UTC)
Year Month Day Hour Lat. Long. Pressure (hPa) Wind (kt) Class Image Chart
1985 8 16 00 14.5 142.0 1004 0 2 Image Chart
1985 8 16 06 15.3 141.8 1004 0 2 Image Chart
1985 8 16 12 16.2 141.7 1004 0 2 Image Chart
1985 8 16 18 17.0 141.6 1002 0 2 Image Chart
1985 8 17 00 17.8 141.5 1000 0 2 Image Chart
1985 8 17 06 18.6 141.4 1000 0 2 Image Chart
1985 8 17 12 19.3 141.2 1000 0 2 Image Chart
1985 8 17 18 20.2 140.9 994 40 3 Image Chart
1985 8 18 00 21.0 140.5 990 45 3 Image Chart
1985 8 18 06 21.7 139.5 990 45 3 Image Chart
1985 8 18 12 22.2 138.5 985 55 4 Image Chart
1985 8 18 18 22.6 137.4 980 60 4 Image Chart
1985 8 19 00 22.7 136.5 980 60 4 Image Chart
1985 8 19 06 22.9 135.7 975 60 4 Image Chart
1985 8 19 12 23.0 134.9 975 60 4 Image Chart
1985 8 19 18 23.1 134.0 975 60 4 Image Chart
1985 8 20 00 23.1 133.0 970 70 5 Image Chart
1985 8 20 06 23.1 132.2 970 70 5 Image Chart
1985 8 20 12 23.1 131.6 970 70 5 Image Chart
1985 8 20 18 23.1 131.1 970 70 5 Image Chart
1985 8 21 00 23.6 130.3 970 70 5 Image Chart
1985 8 21 06 24.0 129.1 970 70 5 Image Chart
1985 8 21 12 24.1 128.1 965 75 5 Image Chart
1985 8 21 18 24.2 126.8 965 75 5 Image Chart
1985 8 22 00 24.5 125.8 960 80 5 Image Chart
1985 8 22 06 24.7 124.7 965 70 5 Image Chart
1985 8 22 12 24.8 123.9 960 70 5 Image Chart
1985 8 22 18 25.3 122.9 955 75 5 Image Chart
1985 8 23 00 25.5 121.5 950 80 5 Image Chart
1985 8 23 06 25.7 120.7 955 75 5 Image Chart
1985 8 23 12 25.7 119.9 960 75 5 Image Chart
1985 8 23 18 25.4 118.7 975 60 4 Image Chart
1985 8 24 00 25.4 117.5 992 40 3 Image Chart
1985 8 24 06 25.4 117.5 996 0 2 Image Chart
1985 8 24 12 26.5 116.0 996 0 2 Image Chart
1985 8 24 18 26.5 115.0 998 0 2 Image Chart
1985 8 25 00 26.0 115.0 998 0 2 Image Chart
1985 8 25 06 26.0 114.0 998 0 2 Image Chart
1985 8 25 12 25.5 113.0 998 0 2 Image Chart
1985 8 25 18 26.0 112.0 998 0 2 Image Chart
Japan Meteorological Agency Best Track Data | Correction Date : 1992-10-21
< Typhoon 198510 1985 Season Typhoon 198512 >

Help